createdAt,value
2022-12-09T00:00:58.325Z,12.4
2022-12-09T00:02:14.619Z,12.2
2022-12-09T00:03:30.898Z,10.6
2022-12-09T00:04:47.191Z,10.2
2022-12-09T00:06:03.496Z,11.8
2022-12-09T00:07:19.782Z,11.1
2022-12-09T00:08:36.072Z,12.4
2022-12-09T00:09:52.370Z,7.9
2022-12-09T00:11:08.653Z,12.1
2022-12-09T00:12:24.950Z,9.8
2022-12-09T00:13:41.248Z,10.5
2022-12-09T00:14:56.565Z,14.8
2022-12-09T00:16:12.844Z,11.1
2022-12-09T00:17:29.150Z,11.8
2022-12-09T00:18:45.436Z,14.5
2022-12-09T00:20:01.729Z,12.1
2022-12-09T00:21:18.018Z,11.8
2022-12-09T00:22:34.321Z,12.5
2022-12-09T00:23:50.616Z,13.3
2022-12-09T00:25:06.906Z,12.4
2022-12-09T00:26:23.191Z,10.9
2022-12-09T00:27:39.483Z,10
2022-12-09T00:28:55.779Z,8.2
2022-12-09T00:30:12.076Z,9.7
2022-12-09T00:31:27.393Z,9.5
2022-12-09T00:32:43.695Z,10.8
2022-12-09T00:33:59.968Z,11.6
2022-12-09T00:35:16.277Z,11
2022-12-09T00:36:32.576Z,11.1
2022-12-09T00:37:48.867Z,10.2
2022-12-09T00:39:05.157Z,15.2
2022-12-09T00:40:21.445Z,17.9
2022-12-09T00:41:37.735Z,16.1
2022-12-09T00:42:54.040Z,14.4
2022-12-09T00:44:10.329Z,12.5
2022-12-09T00:45:26.623Z,11.8
2022-12-09T00:46:42.921Z,14.2
2022-12-09T00:47:58.232Z,15.5
2022-12-09T00:49:14.509Z,13.3
2022-12-09T00:50:30.819Z,14.5
2022-12-09T00:51:47.103Z,13.4
2022-12-09T00:53:03.388Z,12.9
2022-12-09T00:54:19.694Z,14
2022-12-09T00:55:35.989Z,13.9
2022-12-09T00:56:52.280Z,13.4
2022-12-09T00:58:08.562Z,12.1
2022-12-09T00:59:24.869Z,13.5
2022-12-09T01:00:41.150Z,14.5
2022-12-09T01:01:57.442Z,14.4
2022-12-09T01:03:13.750Z,17
2022-12-09T01:04:29.055Z,11.9
2022-12-09T01:05:45.337Z,14.8
2022-12-09T01:07:01.636Z,10.8
2022-12-09T01:08:17.930Z,11.2
2022-12-09T01:09:34.223Z,12.4
2022-12-09T01:10:50.514Z,11.5
2022-12-09T01:12:06.811Z,10.6
2022-12-09T01:13:23.112Z,12.1
2022-12-09T01:14:39.406Z,13.4
2022-12-09T01:15:55.699Z,11.9
2022-12-09T01:17:11.997Z,11.3
2022-12-09T01:18:28.275Z,11.7
2022-12-09T01:19:44.584Z,12
2022-12-09T01:20:59.876Z,11
2022-12-09T01:22:16.170Z,11.7
2022-12-09T01:23:32.474Z,13.5
2022-12-09T01:24:48.767Z,10.9
2022-12-09T01:26:05.048Z,10.4
2022-12-09T01:27:21.348Z,12.5
2022-12-09T01:28:37.638Z,8
2022-12-09T01:29:53.938Z,8.7
2022-12-09T01:31:10.223Z,10
2022-12-09T01:32:26.518Z,10.1
2022-12-09T01:33:42.809Z,12.4
2022-12-09T01:34:59.106Z,8.9
2022-12-09T01:36:15.397Z,9.1
2022-12-09T01:37:30.711Z,9.6
2022-12-09T01:38:47.005Z,10.2
2022-12-09T01:40:03.309Z,9.9
2022-12-09T01:41:19.600Z,10.3
2022-12-09T01:42:35.889Z,10.4
2022-12-09T01:43:52.186Z,9.9
2022-12-09T01:45:08.472Z,11.5
2022-12-09T01:46:24.767Z,11.7
2022-12-09T01:47:41.058Z,10.2
2022-12-09T01:48:57.363Z,11.9
2022-12-09T01:50:13.643Z,9
2022-12-09T01:51:29.955Z,11.2
2022-12-09T01:52:46.235Z,8.8
2022-12-09T01:54:01.540Z,8.8
2022-12-09T01:55:17.831Z,10.7
2022-12-09T01:56:34.126Z,11.4
2022-12-09T01:57:50.434Z,9.7
2022-12-09T01:59:06.711Z,9.6
2022-12-09T02:00:23.015Z,10.4
2022-12-09T02:01:39.307Z,9.9
2022-12-09T02:02:55.609Z,9.4
2022-12-09T02:04:11.893Z,10.3
2022-12-09T02:05:28.193Z,9.6
2022-12-09T02:06:44.486Z,10.4
2022-12-09T02:08:00.774Z,9.1
2022-12-09T02:09:17.079Z,10.3
2022-12-09T02:10:32.369Z,10.3
2022-12-09T02:11:48.651Z,9
2022-12-09T02:13:04.955Z,9.7
2022-12-09T02:14:21.238Z,12.4
2022-12-09T02:15:37.526Z,8.6
2022-12-09T02:16:53.828Z,7.6
2022-12-09T02:18:10.112Z,8.2
2022-12-09T02:19:26.407Z,7.3
2022-12-09T02:20:42.716Z,8
2022-12-09T02:21:59.001Z,7.9
2022-12-09T02:23:15.302Z,8
2022-12-09T02:24:31.596Z,10
2022-12-09T02:25:47.890Z,8.6
2022-12-09T02:27:03.187Z,7
2022-12-09T02:28:19.490Z,6.3
2022-12-09T02:29:35.770Z,7
2022-12-09T02:30:52.071Z,7.2
2022-12-09T02:32:08.361Z,9.7
2022-12-09T02:33:24.660Z,6.9
2022-12-09T02:34:40.949Z,7.8
2022-12-09T02:35:57.243Z,7.8
2022-12-09T02:37:13.541Z,7.8
2022-12-09T02:38:29.830Z,7.9
2022-12-09T02:39:46.125Z,9
2022-12-09T02:41:02.419Z,8.1
2022-12-09T02:42:18.719Z,7.1
2022-12-09T02:43:34.028Z,8.8
2022-12-09T02:44:50.303Z,7.6
2022-12-09T02:46:06.617Z,9.3
2022-12-09T02:47:22.900Z,7.5
2022-12-09T02:48:39.191Z,9
2022-12-09T02:49:55.478Z,8.8
2022-12-09T02:51:11.771Z,10.2
2022-12-09T02:52:28.073Z,8.2
2022-12-09T02:53:44.373Z,8.3
2022-12-09T02:55:00.660Z,7
2022-12-09T02:56:16.959Z,8
2022-12-09T02:57:33.242Z,6.3
2022-12-09T02:58:49.539Z,6.6
2022-12-09T03:00:04.847Z,6.4
2022-12-09T03:01:21.151Z,7.5
2022-12-09T03:02:37.443Z,7.9
2022-12-09T03:03:53.728Z,7.6
2022-12-09T03:05:10.031Z,8.4
2022-12-09T03:06:26.326Z,6.3
2022-12-09T03:07:41.624Z,10.3
2022-12-09T03:08:57.921Z,8.2
2022-12-09T03:10:14.213Z,7.9
2022-12-09T03:11:30.521Z,9
2022-12-09T03:12:46.813Z,8.5
2022-12-09T03:14:03.092Z,7.9
2022-12-09T03:15:19.402Z,8.1
2022-12-09T03:16:35.686Z,9.8
2022-12-09T03:17:51.987Z,9.1
2022-12-09T03:19:08.271Z,6.8
2022-12-09T03:20:24.568Z,7.7
2022-12-09T03:21:40.858Z,7.1
2022-12-09T03:22:57.156Z,7.5
2022-12-09T03:24:12.463Z,8.3
2022-12-09T03:25:28.750Z,11.1
2022-12-09T03:26:45.057Z,7.3
2022-12-09T03:28:01.350Z,10.1
2022-12-09T03:29:17.636Z,9.8
2022-12-09T03:30:33.922Z,8.6
2022-12-09T03:31:50.223Z,8.8
2022-12-09T03:33:06.524Z,8
2022-12-09T03:34:22.819Z,8.2
2022-12-09T03:35:39.112Z,11.7
2022-12-09T03:36:55.406Z,11
2022-12-09T03:38:11.695Z,9.4
2022-12-09T03:39:27.989Z,9.7
2022-12-09T03:40:43.284Z,7.7
2022-12-09T03:41:59.580Z,8.9
2022-12-09T03:43:15.874Z,12.4
2022-12-09T03:44:32.173Z,8
2022-12-09T03:45:48.458Z,8.5
2022-12-09T03:47:04.761Z,9.7
2022-12-09T03:48:21.060Z,9.9
2022-12-09T03:49:37.352Z,9.2
2022-12-09T03:50:53.645Z,9.1
2022-12-09T03:52:09.925Z,7.8
2022-12-09T03:53:26.234Z,9.1
2022-12-09T03:54:42.516Z,11
2022-12-09T03:55:58.808Z,9.9
2022-12-09T03:57:14.126Z,8.6
2022-12-09T03:58:30.419Z,9.6
2022-12-09T03:59:46.711Z,9.7
2022-12-09T04:01:03.003Z,10
2022-12-09T04:02:19.296Z,9.9
2022-12-09T04:03:35.592Z,9.8
2022-12-09T04:04:51.895Z,8.6
2022-12-09T04:06:08.173Z,8.9
2022-12-09T04:07:24.479Z,7.8
2022-12-09T04:08:40.757Z,9.6
2022-12-09T04:09:57.061Z,7.8
2022-12-09T04:11:13.363Z,10.3
2022-12-09T04:12:29.643Z,11.9
2022-12-09T04:13:44.953Z,10.2
2022-12-09T04:15:01.254Z,10.6
2022-12-09T04:16:17.539Z,11.8
2022-12-09T04:17:33.837Z,11.3
2022-12-09T04:18:50.121Z,9.8
2022-12-09T04:20:06.412Z,10.1
2022-12-09T04:21:22.714Z,10.5
2022-12-09T04:22:38.998Z,8.9
2022-12-09T04:23:55.309Z,10.3
2022-12-09T04:25:11.592Z,9.6
2022-12-09T04:26:27.880Z,9.2
2022-12-09T04:27:44.191Z,10
2022-12-09T04:29:00.479Z,10.3
2022-12-09T04:30:15.784Z,10.3
2022-12-09T04:31:32.090Z,10.4
2022-12-09T04:32:48.368Z,11.3
2022-12-09T04:34:04.668Z,10.9
2022-12-09T04:35:20.967Z,10.2
2022-12-09T04:36:37.245Z,11.5
2022-12-09T04:37:53.539Z,9
2022-12-09T04:39:09.840Z,9.9
2022-12-09T04:40:26.124Z,10.7
2022-12-09T04:41:42.434Z,10.8
2022-12-09T04:42:58.718Z,11
2022-12-09T04:44:15.006Z,11.4
2022-12-09T04:45:31.302Z,11.6
2022-12-09T04:46:46.625Z,10.3
2022-12-09T04:48:02.903Z,9.2
2022-12-09T04:49:19.195Z,10.5
2022-12-09T04:50:35.500Z,11.9
2022-12-09T04:51:51.781Z,10.5
2022-12-09T04:53:08.084Z,11.3
2022-12-09T04:54:24.370Z,10.5
2022-12-09T04:55:40.668Z,9.7
2022-12-09T04:56:56.953Z,13.5
2022-12-09T04:58:13.249Z,9.1
2022-12-09T04:59:29.544Z,10.5
2022-12-09T05:00:45.854Z,9.1
2022-12-09T05:02:02.128Z,9.3
2022-12-09T05:03:17.456Z,9.8
2022-12-09T05:04:33.733Z,9.9
2022-12-09T05:05:50.042Z,11.7
2022-12-09T05:07:06.332Z,9.3
2022-12-09T05:08:22.618Z,9.9
2022-12-09T05:09:38.915Z,10.2
2022-12-09T05:10:55.216Z,7.9
2022-12-09T05:12:11.499Z,7.3
2022-12-09T05:13:27.792Z,9.9
2022-12-09T05:14:44.083Z,9.1
2022-12-09T05:16:00.379Z,9.1
2022-12-09T05:17:16.682Z,11.9
2022-12-09T05:18:32.971Z,9
2022-12-09T05:19:48.277Z,10.2
2022-12-09T05:21:04.576Z,10.5
2022-12-09T05:22:20.868Z,7.9
2022-12-09T05:23:37.166Z,10.2
2022-12-09T05:24:53.459Z,10.7
2022-12-09T05:26:09.745Z,11.8
2022-12-09T05:27:26.032Z,11.7
2022-12-09T05:28:42.340Z,9.8
2022-12-09T05:29:58.616Z,12.4
2022-12-09T05:31:14.913Z,11.4
2022-12-09T05:32:31.220Z,11
2022-12-09T05:33:47.496Z,10.8
2022-12-09T05:35:03.792Z,10.7
2022-12-09T05:36:19.100Z,12.3
2022-12-09T05:37:35.395Z,15
2022-12-09T05:38:51.700Z,13.1
2022-12-09T05:40:07.992Z,11.1
2022-12-09T05:41:24.287Z,11.6
2022-12-09T05:42:40.570Z,14.2
2022-12-09T05:43:56.860Z,12.7
2022-12-09T05:45:13.154Z,13.3
2022-12-09T05:46:29.452Z,13.8
2022-12-09T05:47:45.739Z,12.7
2022-12-09T05:49:02.032Z,11.2
2022-12-09T05:50:18.336Z,10.8
2022-12-09T05:51:34.622Z,15.3
2022-12-09T05:52:49.935Z,14.9
2022-12-09T05:54:06.228Z,12.2
2022-12-09T05:55:22.527Z,12.8
2022-12-09T05:56:38.815Z,14.3
2022-12-09T05:57:55.115Z,13
2022-12-09T05:59:11.397Z,21.4
2022-12-09T06:00:27.695Z,18.3
2022-12-09T06:01:43.990Z,18.4
2022-12-09T06:03:00.293Z,15.9
2022-12-09T06:04:16.582Z,18.8
2022-12-09T06:05:32.877Z,17.6
2022-12-09T06:06:49.172Z,24.5
2022-12-09T06:08:05.463Z,17.6
2022-12-09T06:09:20.773Z,19.1
2022-12-09T06:10:37.051Z,21.6
2022-12-09T06:11:53.358Z,20
2022-12-09T06:13:09.656Z,24.3
2022-12-09T06:14:25.938Z,16.9
2022-12-09T06:15:42.225Z,17.4
2022-12-09T06:16:58.517Z,19
2022-12-09T06:18:14.811Z,32.9
2022-12-09T06:19:31.111Z,18.6
2022-12-09T06:20:47.414Z,19.9
2022-12-09T06:22:03.696Z,23.2
2022-12-09T06:23:20.001Z,17.1
2022-12-09T06:24:36.299Z,17.4
2022-12-09T06:25:51.588Z,30.3
2022-12-09T06:27:07.895Z,19.8
2022-12-09T06:28:24.178Z,19.7
2022-12-09T06:29:40.486Z,23.7
2022-12-09T06:30:56.780Z,24.3
2022-12-09T06:32:13.064Z,18.6
2022-12-09T06:33:29.314Z,17.2
2022-12-09T06:34:45.598Z,17.1
2022-12-09T06:36:01.858Z,19.6
2022-12-09T06:37:18.087Z,18.9
2022-12-09T06:38:34.332Z,18.7
2022-12-09T06:39:50.562Z,17.2
2022-12-09T06:41:06.808Z,19
2022-12-09T06:42:22.062Z,21.5
2022-12-09T06:43:38.302Z,20
2022-12-09T06:44:54.534Z,19.8
2022-12-09T06:46:10.788Z,17.5
2022-12-09T06:47:27.032Z,14.8
2022-12-09T06:48:43.257Z,15.7
2022-12-09T06:49:59.492Z,14.7
2022-12-09T06:51:15.746Z,16.8
2022-12-09T06:52:31.983Z,15
2022-12-09T06:53:48.210Z,14.6
2022-12-09T06:55:04.459Z,14.5
2022-12-09T06:56:20.690Z,14.8
2022-12-09T06:57:36.939Z,16
2022-12-09T06:58:52.188Z,14.5
2022-12-09T07:00:08.437Z,16.8
2022-12-09T07:01:24.678Z,15.2
2022-12-09T07:02:40.909Z,15.9
2022-12-09T07:03:57.161Z,16
2022-12-09T07:05:13.388Z,13.2
2022-12-09T07:06:29.637Z,13.1
2022-12-09T07:07:45.876Z,12.1
2022-12-09T07:09:02.109Z,13.4
2022-12-09T07:10:18.353Z,13.3
2022-12-09T07:11:34.586Z,13.6
2022-12-09T07:12:50.831Z,13.5
2022-12-09T07:14:07.072Z,14.6
2022-12-09T07:15:22.313Z,11.6
2022-12-09T07:16:38.565Z,12.2
2022-12-09T07:17:54.803Z,13.8
2022-12-09T07:19:11.043Z,15.2
2022-12-09T07:20:27.279Z,15.7
2022-12-09T07:21:43.526Z,13
2022-12-09T07:22:58.774Z,10.8
2022-12-09T07:24:15.013Z,15.8
2022-12-09T07:25:31.267Z,16.3
2022-12-09T07:26:47.504Z,16.7
2022-12-09T07:28:03.729Z,13.1
2022-12-09T07:29:19.970Z,11
2022-12-09T07:30:36.221Z,12.1
2022-12-09T07:31:52.461Z,12.8
2022-12-09T07:33:08.691Z,14.3
2022-12-09T07:34:24.939Z,13
2022-12-09T07:35:41.184Z,16.3
2022-12-09T07:36:57.422Z,12.7
2022-12-09T07:38:13.653Z,14.7
2022-12-09T07:39:28.914Z,13.9
2022-12-09T07:40:45.153Z,14
2022-12-09T07:42:01.384Z,13.8
2022-12-09T07:43:17.623Z,13.3
2022-12-09T07:44:33.866Z,11.8
2022-12-09T07:45:50.117Z,13.8
2022-12-09T07:47:06.338Z,12.4
2022-12-09T07:48:22.578Z,12.7
2022-12-09T07:49:38.815Z,17.6
2022-12-09T07:50:55.060Z,16.5
2022-12-09T07:52:11.297Z,11.5
2022-12-09T07:53:27.542Z,13.2
2022-12-09T07:54:43.793Z,14.2
2022-12-09T07:55:59.028Z,14.8
2022-12-09T07:57:15.282Z,13.5
2022-12-09T07:58:31.515Z,13
2022-12-09T07:59:47.764Z,14.7
2022-12-09T08:01:03.988Z,13.4
2022-12-09T08:02:20.235Z,12.6
2022-12-09T08:03:36.483Z,13.8
2022-12-09T08:04:52.722Z,14
2022-12-09T08:06:08.955Z,13.3
2022-12-09T08:07:25.189Z,13.8
2022-12-09T08:08:41.439Z,14.2
2022-12-09T08:09:57.663Z,11.4
2022-12-09T08:11:13.902Z,14.7
2022-12-09T08:12:29.160Z,11.2
2022-12-09T08:13:45.000Z,11.3
2022-12-09T08:15:01.639Z,12.3
2022-12-09T08:16:17.879Z,12.6
2022-12-09T08:17:34.127Z,13.4
2022-12-09T08:18:50.366Z,11.9
2022-12-09T08:20:06.601Z,13.2
2022-12-09T08:21:22.834Z,11
2022-12-09T08:22:39.086Z,11.1
2022-12-09T08:23:55.329Z,12.4
2022-12-09T08:25:11.562Z,13.3
2022-12-09T08:26:27.795Z,13.1
2022-12-09T08:27:44.039Z,12.7
2022-12-09T08:28:59.288Z,12.2
2022-12-09T08:30:15.527Z,12.2
2022-12-09T08:31:31.776Z,12.6
2022-12-09T08:32:48.017Z,12.7
2022-12-09T08:34:04.247Z,13.6
2022-12-09T08:35:20.494Z,17.3
2022-12-09T08:36:36.726Z,21.5
2022-12-09T08:37:52.964Z,16
2022-12-09T08:39:09.203Z,16.3
2022-12-09T08:40:25.457Z,140.3
2022-12-09T08:41:41.694Z,202.2
2022-12-09T08:42:57.923Z,52.1
2022-12-09T08:44:14.158Z,17.6
2022-12-09T08:45:29.420Z,17.6
2022-12-09T08:46:45.655Z,13.8
2022-12-09T08:48:01.901Z,13.9
2022-12-09T08:49:18.136Z,14
2022-12-09T08:50:34.375Z,11.6
2022-12-09T08:51:50.620Z,12.8
2022-12-09T08:53:06.858Z,11.9
2022-12-09T08:54:23.105Z,11.3
2022-12-09T08:55:39.339Z,16.2
2022-12-09T08:56:55.568Z,18.4
2022-12-09T08:58:11.807Z,26.8
2022-12-09T08:59:28.063Z,29.6
2022-12-09T09:00:44.298Z,21.9
2022-12-09T09:01:59.550Z,17.9
2022-12-09T09:03:15.784Z,21.9
2022-12-09T09:04:32.022Z,34.1
2022-12-09T09:05:48.275Z,63.2
2022-12-09T09:07:04.511Z,61.3
2022-12-09T09:08:20.742Z,42.1
2022-12-09T09:09:36.993Z,118.7
2022-12-09T09:10:53.218Z,48.4
2022-12-09T09:12:09.473Z,17.3
2022-12-09T09:13:25.694Z,26.8
2022-12-09T09:14:41.941Z,31.7
2022-12-09T09:15:58.191Z,14.5
2022-12-09T09:17:14.425Z,16.9
2022-12-09T09:18:29.687Z,17.1
2022-12-09T09:19:45.915Z,13.4
2022-12-09T09:21:02.155Z,13
2022-12-09T09:22:18.397Z,13.7
2022-12-09T09:23:34.629Z,15.4
2022-12-09T09:24:50.875Z,16
2022-12-09T09:26:07.123Z,14.1
2022-12-09T09:28:39.588Z,13.8
2022-12-09T09:29:55.832Z,18.7
2022-12-09T09:31:12.068Z,17.9
2022-12-09T09:32:28.309Z,14.7
2022-12-09T09:33:44.539Z,17.6
2022-12-09T09:34:59.804Z,15.1
2022-12-09T09:36:16.041Z,16
2022-12-09T09:37:32.291Z,15.7
2022-12-09T09:38:48.525Z,17.7
2022-12-09T09:40:04.767Z,17.5
2022-12-09T09:41:21.000Z,15.2
2022-12-09T09:42:37.236Z,14.8
2022-12-09T09:43:53.482Z,14.5
2022-12-09T09:45:09.723Z,15.4
2022-12-09T09:46:25.962Z,16.8
2022-12-09T09:47:42.198Z,13.8
2022-12-09T09:48:58.433Z,14.6
2022-12-09T09:50:14.681Z,13.7
2022-12-09T09:51:29.924Z,14.7
2022-12-09T09:52:46.169Z,12.7
2022-12-09T09:54:02.402Z,14.5
2022-12-09T09:55:18.641Z,15.5
2022-12-09T09:56:34.883Z,14.8
2022-12-09T09:57:51.119Z,13.4
2022-12-09T09:59:07.376Z,13.6
2022-12-09T10:00:23.610Z,15.9
2022-12-09T10:01:39.837Z,15.4
2022-12-09T10:02:56.081Z,12.3
2022-12-09T10:05:28.560Z,13.8
2022-12-09T10:06:44.796Z,15
2022-12-09T10:08:00.051Z,13.2
2022-12-09T10:09:16.291Z,11
2022-12-09T10:10:32.539Z,14.1
2022-12-09T10:11:48.781Z,14.8
2022-12-09T10:13:05.024Z,13.6
2022-12-09T10:14:21.252Z,15.8
2022-12-09T10:15:37.482Z,14
2022-12-09T10:16:53.729Z,12.9
2022-12-09T10:18:09.969Z,14.5
2022-12-09T10:19:26.219Z,14
2022-12-09T10:20:42.456Z,15
2022-12-09T10:21:58.679Z,15.3
2022-12-09T10:23:14.933Z,14.4
2022-12-09T10:24:30.178Z,14.6
2022-12-09T10:25:46.419Z,13.2
2022-12-09T10:27:02.662Z,15.3
2022-12-09T10:28:18.908Z,17.3
2022-12-09T10:29:35.130Z,16.9
2022-12-09T10:30:51.388Z,16.3
2022-12-09T10:32:07.622Z,18.9
2022-12-09T10:33:23.859Z,15.2
2022-12-09T10:34:40.106Z,13.7
2022-12-09T10:35:56.340Z,15
2022-12-09T10:37:12.581Z,17.1
2022-12-09T10:38:28.806Z,15.5
2022-12-09T10:39:45.061Z,15.4
2022-12-09T10:41:00.298Z,14.1
2022-12-09T10:42:16.557Z,14.3
2022-12-09T10:43:32.791Z,18.6
2022-12-09T10:44:49.016Z,17.9
2022-12-09T10:46:05.265Z,15.5
2022-12-09T10:47:21.495Z,15.5
2022-12-09T10:48:37.733Z,16.2
2022-12-09T10:49:53.976Z,19.9
2022-12-09T10:51:10.220Z,16.6
2022-12-09T10:52:26.466Z,15.4
2022-12-09T10:53:42.692Z,12.3
2022-12-09T10:54:58.945Z,14.3
2022-12-09T10:56:15.183Z,15
2022-12-09T10:57:30.437Z,19
2022-12-09T10:58:46.678Z,15.1
2022-12-09T11:00:02.921Z,14.2
2022-12-09T11:01:19.143Z,13.6
2022-12-09T11:02:35.387Z,12.7
2022-12-09T11:03:51.619Z,15.5
2022-12-09T11:05:07.860Z,17.8
2022-12-09T11:06:24.109Z,14.4
2022-12-09T11:07:40.338Z,16
2022-12-09T11:08:56.576Z,13.5
2022-12-09T11:10:12.821Z,16.4
2022-12-09T11:11:29.061Z,13.7
2022-12-09T11:12:45.304Z,16.3
2022-12-09T11:14:00.559Z,16.3
2022-12-09T11:15:16.810Z,13.6
2022-12-09T11:16:33.040Z,13.8
2022-12-09T11:17:49.288Z,13.2
2022-12-09T11:19:05.512Z,14.8
2022-12-09T11:20:21.755Z,13.5
2022-12-09T11:21:37.991Z,16.9
2022-12-09T11:22:54.242Z,14.9
2022-12-09T11:24:10.484Z,15.5
2022-12-09T11:25:26.711Z,16.3
2022-12-09T11:26:42.944Z,15.5
2022-12-09T11:27:59.193Z,13.7
2022-12-09T11:29:15.438Z,13.1
2022-12-09T11:30:30.688Z,16.1
2022-12-09T11:31:46.934Z,14.8
2022-12-09T11:33:03.169Z,11.6
2022-12-09T11:34:19.397Z,14.2
2022-12-09T11:35:35.647Z,17.8
2022-12-09T11:36:51.895Z,14.3
2022-12-09T11:38:07.137Z,13.3
2022-12-09T11:39:23.388Z,11.3
2022-12-09T11:40:39.616Z,12.9
2022-12-09T11:41:55.854Z,14.3
2022-12-09T11:43:12.104Z,15.5
2022-12-09T11:44:28.333Z,13.5
2022-12-09T11:45:44.582Z,15.4
2022-12-09T11:47:00.816Z,12.2
2022-12-09T11:48:17.055Z,14.8
2022-12-09T11:49:33.308Z,12.7
2022-12-09T11:50:49.531Z,13.5
2022-12-09T11:52:05.770Z,13.3
2022-12-09T11:53:22.012Z,13.1
2022-12-09T11:54:37.281Z,12.8
2022-12-09T11:55:53.511Z,12.7
2022-12-09T11:57:09.760Z,13.2
2022-12-09T11:58:25.991Z,14.2
2022-12-09T11:59:42.232Z,11.3
2022-12-09T12:00:58.458Z,13.1
2022-12-09T12:02:14.710Z,12.9
2022-12-09T12:03:30.948Z,14.1
2022-12-09T12:04:47.182Z,13.6
2022-12-09T12:06:03.435Z,13.7
2022-12-09T12:07:19.675Z,10.9
2022-12-09T12:08:35.905Z,14.5
2022-12-09T12:09:52.137Z,13.2
2022-12-09T12:11:07.393Z,16
2022-12-09T12:12:23.631Z,14.6
2022-12-09T12:13:39.872Z,14.8
2022-12-09T12:14:56.113Z,14.6
2022-12-09T12:16:12.352Z,14.1
2022-12-09T12:17:28.591Z,14.4
2022-12-09T12:18:44.827Z,16.1
2022-12-09T12:20:01.077Z,16.4
2022-12-09T12:21:17.324Z,15.2
2022-12-09T12:22:33.556Z,16.3
2022-12-09T12:23:49.785Z,17.5
2022-12-09T12:25:06.042Z,15.3
2022-12-09T12:26:22.267Z,17
2022-12-09T12:27:37.532Z,17
2022-12-09T12:28:53.760Z,15
2022-12-09T12:30:10.014Z,13.5
2022-12-09T12:31:26.248Z,14.9
2022-12-09T12:32:42.487Z,14.5
2022-12-09T12:33:58.724Z,14.3
2022-12-09T12:35:14.963Z,15.9
2022-12-09T12:36:31.205Z,15.4
2022-12-09T12:37:47.445Z,18.4
2022-12-09T12:39:03.679Z,18
2022-12-09T12:40:19.923Z,13.7
2022-12-09T12:41:36.149Z,16.5
2022-12-09T12:42:52.389Z,15.9
2022-12-09T12:44:07.654Z,15.4
2022-12-09T12:45:23.902Z,15.7
2022-12-09T12:46:40.129Z,16.5
2022-12-09T12:47:56.362Z,16.2
2022-12-09T12:49:12.612Z,15.6
2022-12-09T12:50:28.842Z,14.1
2022-12-09T12:51:45.080Z,13.9
2022-12-09T12:53:01.336Z,18.6
2022-12-09T12:54:17.558Z,13.4
2022-12-09T12:55:33.818Z,14.8
2022-12-09T12:56:50.045Z,14.2
2022-12-09T12:58:06.276Z,14.9
2022-12-09T12:59:22.522Z,14
2022-12-09T13:00:37.778Z,15.5
2022-12-09T13:01:54.019Z,12.5
2022-12-09T13:03:10.261Z,13.4
2022-12-09T13:04:26.491Z,16.7
2022-12-09T13:05:42.734Z,13.4
2022-12-09T13:06:58.987Z,16.2
2022-12-09T13:08:15.219Z,13.6
2022-12-09T13:09:31.447Z,13.5
2022-12-09T13:10:47.688Z,14.9
2022-12-09T13:12:03.924Z,16.7
2022-12-09T13:13:20.171Z,14.9
2022-12-09T13:14:36.424Z,14.6
2022-12-09T13:15:52.644Z,14.8
2022-12-09T13:17:07.913Z,17.9
2022-12-09T13:18:24.150Z,14.3
2022-12-09T13:19:40.385Z,17.4
2022-12-09T13:20:56.632Z,15.2
2022-12-09T13:22:12.861Z,14.1
2022-12-09T13:23:29.105Z,15.8
2022-12-09T13:24:45.347Z,13.2
2022-12-09T13:26:01.582Z,14.6
2022-12-09T13:27:17.822Z,13.6
2022-12-09T13:28:34.053Z,14.5
2022-12-09T13:29:50.300Z,16.8
2022-12-09T13:31:06.531Z,14.8
2022-12-09T13:32:22.784Z,15.3
2022-12-09T13:33:38.031Z,14.3
2022-12-09T13:34:54.275Z,15.3
2022-12-09T13:36:10.523Z,16.4
2022-12-09T13:37:26.743Z,17.3
2022-12-09T13:38:42.997Z,14.6
2022-12-09T13:39:59.239Z,16.9
2022-12-09T13:41:15.461Z,16.1
2022-12-09T13:42:31.703Z,16.8
2022-12-09T13:43:47.943Z,15.1
2022-12-09T13:45:04.177Z,15.1
2022-12-09T13:46:20.417Z,13.1
2022-12-09T13:47:36.676Z,15.2
2022-12-09T13:48:52.907Z,15.3
2022-12-09T13:50:08.149Z,16
2022-12-09T13:51:24.395Z,17.6
2022-12-09T13:52:40.636Z,14.9
2022-12-09T13:53:56.876Z,13.8
2022-12-09T13:55:13.121Z,15.9
2022-12-09T13:56:29.362Z,12.8
2022-12-09T13:57:45.589Z,12.9
2022-12-09T13:59:01.832Z,15
2022-12-09T14:00:18.083Z,14.4
2022-12-09T14:01:34.308Z,16.4
2022-12-09T14:02:50.543Z,17.8
2022-12-09T14:04:06.782Z,15.7
2022-12-09T14:05:23.024Z,14.3
2022-12-09T14:06:38.293Z,14.8
2022-12-09T14:07:54.521Z,19.9
2022-12-09T14:09:10.761Z,13.4
2022-12-09T14:10:27.003Z,15.5
2022-12-09T14:11:43.234Z,13.8
2022-12-09T14:12:59.485Z,16.8
2022-12-09T14:14:15.725Z,13.6
2022-12-09T14:15:31.962Z,13.9
2022-12-09T14:16:48.206Z,17.9
2022-12-09T14:18:04.444Z,19.2
2022-12-09T14:19:20.673Z,15.4
2022-12-09T14:20:36.909Z,15.2
2022-12-09T14:21:53.159Z,15.7
2022-12-09T14:23:08.417Z,15
2022-12-09T14:24:24.660Z,15.8
2022-12-09T14:25:40.885Z,15.6
2022-12-09T14:26:57.137Z,13.3
2022-12-09T14:28:13.362Z,16
2022-12-09T14:29:29.616Z,15.6
2022-12-09T14:30:45.853Z,16.4
2022-12-09T14:32:02.089Z,17.6
2022-12-09T14:33:18.334Z,18.5
2022-12-09T14:34:34.560Z,15
2022-12-09T14:35:50.807Z,14.8
2022-12-09T14:37:07.041Z,16.2
2022-12-09T14:38:23.275Z,17.9
2022-12-09T14:39:38.540Z,15.8
2022-12-09T14:40:54.780Z,14.7
2022-12-09T14:42:11.010Z,16.1
2022-12-09T14:43:27.248Z,16.9
2022-12-09T14:44:43.506Z,19.2
2022-12-09T14:45:59.738Z,17.6
2022-12-09T14:47:15.968Z,19
2022-12-09T14:48:32.221Z,17.3
2022-12-09T14:49:48.458Z,17.3
2022-12-09T14:51:04.691Z,20
2022-12-09T14:52:20.935Z,17.2
2022-12-09T14:53:37.175Z,23.5
2022-12-09T14:54:53.401Z,34.9
2022-12-09T14:56:08.662Z,21.3
2022-12-09T14:57:24.910Z,43.9
2022-12-09T14:58:41.155Z,29.1
2022-12-09T14:59:57.389Z,19.5
2022-12-09T15:01:13.628Z,17
2022-12-09T15:02:29.853Z,17.4
2022-12-09T15:03:46.107Z,16.1
2022-12-09T15:05:02.350Z,15.1
2022-12-09T15:06:18.576Z,21.5
2022-12-09T15:07:34.825Z,18.6
2022-12-09T15:08:51.068Z,13.9
2022-12-09T15:10:07.293Z,13
2022-12-09T15:11:23.529Z,15
2022-12-09T15:12:38.797Z,13.8
2022-12-09T15:13:55.029Z,13.1
2022-12-09T15:15:11.281Z,14.7
2022-12-09T15:16:27.518Z,40.1
2022-12-09T15:17:43.753Z,23
2022-12-09T15:18:59.992Z,19.5
2022-12-09T15:20:16.222Z,14.1
2022-12-09T15:21:32.469Z,17.8
2022-12-09T15:22:48.717Z,13.6
2022-12-09T15:24:04.953Z,15.1
2022-12-09T15:25:21.198Z,11.8
2022-12-09T15:26:37.430Z,12.8
2022-12-09T15:27:53.675Z,13.1
2022-12-09T15:29:08.938Z,12.1
2022-12-09T15:30:25.237Z,12.2
2022-12-09T15:31:41.528Z,13.4
2022-12-09T15:32:57.771Z,12.3
2022-12-09T15:34:14.000Z,14.8
2022-12-09T15:35:30.235Z,14.9
2022-12-09T15:36:46.474Z,14.7
2022-12-09T15:38:02.781Z,15.4
2022-12-09T15:39:19.074Z,12.9
2022-12-09T15:40:35.365Z,13.4
2022-12-09T15:41:51.652Z,13.7
2022-12-09T15:43:07.940Z,13.7
2022-12-09T15:44:24.243Z,12.6
2022-12-09T15:45:39.543Z,16.6
2022-12-09T15:46:55.849Z,14.6
2022-12-09T15:48:12.132Z,13.5
2022-12-09T15:49:28.432Z,13.5
2022-12-09T15:50:44.726Z,12.2
2022-12-09T15:52:01.008Z,14.6
2022-12-09T15:53:16.329Z,14.7
2022-12-09T15:54:32.618Z,14.2
2022-12-09T15:55:48.926Z,14.1
2022-12-09T15:57:05.200Z,14.6
2022-12-09T15:58:21.497Z,14.2
2022-12-09T15:59:37.789Z,13.2
2022-12-09T16:00:54.083Z,15.9
2022-12-09T16:02:10.392Z,17.2
2022-12-09T16:03:26.677Z,18.7
2022-12-09T16:04:42.977Z,16.2
2022-12-09T16:05:59.256Z,18.7
2022-12-09T16:07:15.549Z,15.6
2022-12-09T16:08:31.861Z,15.1
2022-12-09T16:09:47.165Z,17.8
2022-12-09T16:11:03.443Z,19.2
2022-12-09T16:12:19.756Z,17.6
2022-12-09T16:13:36.035Z,15.1
2022-12-09T16:14:52.328Z,30.4
2022-12-09T16:16:08.000Z,16.8
2022-12-09T16:17:24.929Z,18.8
2022-12-09T16:18:41.215Z,23.3
2022-12-09T16:19:57.505Z,28.1
2022-12-09T16:21:13.799Z,26.6
2022-12-09T16:22:30.084Z,26.2
2022-12-09T16:23:46.394Z,53.1
2022-12-09T16:25:02.669Z,27.5
2022-12-09T16:26:17.997Z,29
2022-12-09T16:27:34.281Z,30.8
2022-12-09T16:28:50.583Z,26
2022-12-09T16:30:06.875Z,20.5
2022-12-09T16:31:23.168Z,23.6
2022-12-09T16:32:39.459Z,17.1
2022-12-09T16:33:55.749Z,19.1
2022-12-09T16:35:12.043Z,13.4
2022-12-09T16:36:28.331Z,16.1
2022-12-09T16:37:44.619Z,18
2022-12-09T16:39:00.929Z,19.7
2022-12-09T16:40:17.218Z,15.8
2022-12-09T16:42:49.797Z,16.5
2022-12-09T16:44:05.110Z,14.6
2022-12-09T16:45:21.410Z,17.5
2022-12-09T16:46:37.700Z,14.2
2022-12-09T16:47:53.991Z,14.8
2022-12-09T16:49:10.285Z,18.4
2022-12-09T16:50:26.573Z,15.9
2022-12-09T16:51:42.867Z,14.5
2022-12-09T16:52:59.173Z,15.1
2022-12-09T16:54:15.452Z,15
2022-12-09T16:56:48.036Z,13.6
2022-12-09T16:58:04.332Z,15.7
2022-12-09T16:59:20.627Z,15.5
2022-12-09T17:00:35.939Z,16.7
2022-12-09T17:01:52.240Z,15.5
2022-12-09T17:03:08.517Z,18.2
2022-12-09T17:04:24.820Z,16.2
2022-12-09T17:05:41.122Z,17.6
2022-12-09T17:06:57.397Z,14.8
2022-12-09T17:08:13.700Z,15.7
2022-12-09T17:09:29.999Z,20.6
2022-12-09T17:10:46.281Z,17.2
2022-12-09T17:12:02.585Z,16.2